sensor_id;sensor_type;location;lat;lon;timestamp;pressure;altitude;pressure_sealevel;temperature;humidity
73651;BME280;61944;52.538;6.108;2023-05-17T00:02:03;102253.72;;;10.75;100.00
73651;BME280;61944;52.538;6.108;2023-05-17T00:04:28;102262.13;;;10.75;100.00
73651;BME280;61944;52.538;6.108;2023-05-17T00:06:54;102262.03;;;10.84;100.00
73651;BME280;61944;52.538;6.108;2023-05-17T00:09:19;102254.75;;;10.83;100.00
73651;BME280;61944;52.538;6.108;2023-05-17T00:11:44;102263.31;;;10.87;100.00
73651;BME280;61944;52.538;6.108;2023-05-17T00:14:10;102257.00;;;10.90;100.00
73651;BME280;61944;52.538;6.108;2023-05-17T00:16:36;102266.81;;;10.84;100.00
73651;BME280;61944;52.538;6.108;2023-05-17T00:19:02;102261.41;;;10.78;100.00
73651;BME280;61944;52.538;6.108;2023-05-17T00:21:27;102267.00;;;10.78;100.00
73651;BME280;61944;52.538;6.108;2023-05-17T00:23:53;102265.50;;;10.81;100.00
73651;BME280;61944;52.538;6.108;2023-05-17T00:26:18;102263.31;;;10.87;100.00
73651;BME280;61944;52.538;6.108;2023-05-17T00:28:44;102268.91;;;10.87;100.00
73651;BME280;61944;52.538;6.108;2023-05-17T00:31:09;102270.91;;;10.86;100.00
73651;BME280;61944;52.538;6.108;2023-05-17T00:33:35;102272.59;;;10.78;100.00
73651;BME280;61944;52.538;6.108;2023-05-17T00:36:00;102262.59;;;10.90;100.00
73651;BME280;61944;52.538;6.108;2023-05-17T00:38:25;102266.34;;;10.94;100.00
73651;BME280;61944;52.538;6.108;2023-05-17T00:40:51;102270.41;;;10.84;100.00
73651;BME280;61944;52.538;6.108;2023-05-17T00:43:18;102274.97;;;10.89;100.00
73651;BME280;61944;52.538;6.108;2023-05-17T00:45:43;102270.03;;;10.73;100.00
73651;BME280;61944;52.538;6.108;2023-05-17T00:48:08;102276.97;;;10.55;100.00
73651;BME280;61944;52.538;6.108;2023-05-17T00:50:34;102270.13;;;10.65;100.00
73651;BME280;61944;52.538;6.108;2023-05-17T00:52:59;102282.34;;;10.60;100.00
73651;BME280;61944;52.538;6.108;2023-05-17T00:55:25;102277.44;;;10.57;100.00
73651;BME280;61944;52.538;6.108;2023-05-17T00:57:50;102279.06;;;10.58;100.00
73651;BME280;61944;52.538;6.108;2023-05-17T01:00:16;102286.03;;;10.52;100.00
73651;BME280;61944;52.538;6.108;2023-05-17T01:02:41;102290.84;;;10.30;100.00
73651;BME280;61944;52.538;6.108;2023-05-17T01:05:08;102284.09;;;10.31;100.00
73651;BME280;61944;52.538;6.108;2023-05-17T01:07:34;102285.19;;;10.09;100.00
73651;BME280;61944;52.538;6.108;2023-05-17T01:09:59;102287.66;;;10.11;100.00
73651;BME280;61944;52.538;6.108;2023-05-17T01:12:54;102285.13;;;10.18;100.00
73651;BME280;61944;52.538;6.108;2023-05-17T01:15:37;102285.75;;;10.24;100.00
73651;BME280;61944;52.538;6.108;2023-05-17T01:20:39;102285.59;;;9.99;100.00
73651;BME280;61944;52.538;6.108;2023-05-17T01:26:40;102292.31;;;10.07;100.00
73651;BME280;61944;52.538;6.108;2023-05-17T01:29:08;102287.41;;;10.04;100.00
73651;BME280;61944;52.538;6.108;2023-05-17T01:31:35;102284.91;;;9.81;100.00
73651;BME280;61944;52.538;6.108;2023-05-17T01:34:00;102298.69;;;9.86;100.00
73651;BME280;61944;52.538;6.108;2023-05-17T01:36:26;102293.06;;;10.16;99.95
73651;BME280;61944;52.538;6.108;2023-05-17T01:38:51;102295.84;;;10.16;99.47
73651;BME280;61944;52.538;6.108;2023-05-17T01:41:29;102299.34;;;10.13;99.88
73651;BME280;61944;52.538;6.108;2023-05-17T01:46:39;102305.28;;;10.11;99.91
73651;BME280;61944;52.538;6.108;2023-05-17T01:49:14;102308.44;;;10.10;99.18
73651;BME280;61944;52.538;6.108;2023-05-17T01:51:46;102309.47;;;9.96;99.84
73651;BME280;61944;52.538;6.108;2023-05-17T01:54:12;102319.63;;;10.10;99.64
73651;BME280;61944;52.538;6.108;2023-05-17T01:56:46;102316.34;;;10.08;98.89
73651;BME280;61944;52.538;6.108;2023-05-17T01:59:14;102314.00;;;9.89;100.00
73651;BME280;61944;52.538;6.108;2023-05-17T02:01:44;102318.22;;;10.16;99.95
73651;BME280;61944;52.538;6.108;2023-05-17T02:04:11;102310.28;;;9.97;100.00
73651;BME280;61944;52.538;6.108;2023-05-17T02:06:36;102314.06;;;10.22;99.66
73651;BME280;61944;52.538;6.108;2023-05-17T02:09:02;102317.09;;;10.17;99.69
73651;BME280;61944;52.538;6.108;2023-05-17T02:11:27;102307.41;;;10.14;99.55
73651;BME280;61944;52.538;6.108;2023-05-17T02:13:53;102318.69;;;9.97;100.00
73651;BME280;61944;52.538;6.108;2023-05-17T02:16:18;102314.94;;;10.14;99.19
73651;BME280;61944;52.538;6.108;2023-05-17T02:18:43;102321.41;;;9.55;100.00
73651;BME280;61944;52.538;6.108;2023-05-17T02:21:09;102313.06;;;9.76;100.00
73651;BME280;61944;52.538;6.108;2023-05-17T02:23:36;102317.06;;;9.96;99.18
73651;BME280;61944;52.538;6.108;2023-05-17T02:26:02;102317.13;;;9.87;99.39
73651;BME280;61944;52.538;6.108;2023-05-17T02:28:27;102321.63;;;10.01;99.19
73651;BME280;61944;52.538;6.108;2023-05-17T02:30:52;102311.94;;;9.98;99.01
73651;BME280;61944;52.538;6.108;2023-05-17T02:33:18;102316.84;;;10.01;98.50
73651;BME280;61944;52.538;6.108;2023-05-17T02:35:44;102316.47;;;10.11;97.69
73651;BME280;61944;52.538;6.108;2023-05-17T02:38:09;102311.78;;;9.94;98.21
73651;BME280;61944;52.538;6.108;2023-05-17T02:40:34;102325.31;;;9.92;98.88
73651;BME280;61944;52.538;6.108;2023-05-17T02:43:00;102315.28;;;9.62;100.00
73651;BME280;61944;52.538;6.108;2023-05-17T02:45:26;102326.53;;;9.83;99.97
73651;BME280;61944;52.538;6.108;2023-05-17T02:47:52;102333.91;;;9.87;99.38
73651;BME280;61944;52.538;6.108;2023-05-17T02:50:17;102324.72;;;9.78;99.93
73651;BME280;61944;52.538;6.108;2023-05-17T02:52:42;102333.22;;;9.90;98.95
73651;BME280;61944;52.538;6.108;2023-05-17T02:55:08;102334.56;;;9.84;99.18
73651;BME280;61944;52.538;6.108;2023-05-17T02:57:33;102338.00;;;9.90;98.54
73651;BME280;61944;52.538;6.108;2023-05-17T02:59:59;102330.19;;;9.74;99.48
73651;BME280;61944;52.538;6.108;2023-05-17T03:02:24;102324.44;;;9.71;99.43
73651;BME280;61944;52.538;6.108;2023-05-17T03:04:50;102329.88;;;9.67;99.94
73651;BME280;61944;52.538;6.108;2023-05-17T03:07:15;102331.03;;;9.66;99.86
73651;BME280;61944;52.538;6.108;2023-05-17T03:09:40;102333.47;;;9.76;99.53
73651;BME280;61944;52.538;6.108;2023-05-17T03:12:07;102339.38;;;9.75;99.38
73651;BME280;61944;52.538;6.108;2023-05-17T03:14:32;102339.44;;;9.66;100.00
73651;BME280;61944;52.538;6.108;2023-05-17T03:16:58;102335.13;;;9.69;98.84
73651;BME280;61944;52.538;6.108;2023-05-17T03:19:23;102341.06;;;9.67;100.00
73651;BME280;61944;52.538;6.108;2023-05-17T03:21:48;102339.13;;;9.59;100.00
73651;BME280;61944;52.538;6.108;2023-05-17T03:24:14;102343.25;;;9.62;99.92
73651;BME280;61944;52.538;6.108;2023-05-17T03:26:39;102345.09;;;9.49;100.00
73651;BME280;61944;52.538;6.108;2023-05-17T03:29:05;102357.53;;;9.60;100.00
73651;BME280;61944;52.538;6.108;2023-05-17T03:31:30;102355.16;;;9.41;100.00
73651;BME280;61944;52.538;6.108;2023-05-17T03:33:55;102354.97;;;9.46;100.00
73651;BME280;61944;52.538;6.108;2023-05-17T03:36:21;102356.44;;;9.44;100.00
73651;BME280;61944;52.538;6.108;2023-05-17T03:38:47;102359.03;;;9.57;100.00
73651;BME280;61944;52.538;6.108;2023-05-17T03:41:12;102358.09;;;9.45;100.00
73651;BME280;61944;52.538;6.108;2023-05-17T03:43:37;102364.19;;;9.38;100.00
73651;BME280;61944;52.538;6.108;2023-05-17T03:46:03;102361.16;;;9.61;100.00
73651;BME280;61944;52.538;6.108;2023-05-17T03:48:28;102373.63;;;9.72;100.00
73651;BME280;61944;52.538;6.108;2023-05-17T03:50:53;102368.19;;;9.67;100.00
73651;BME280;61944;52.538;6.108;2023-05-17T03:53:19;102380.09;;;9.46;100.00
73651;BME280;61944;52.538;6.108;2023-05-17T03:55:45;102384.16;;;9.66;100.00
73651;BME280;61944;52.538;6.108;2023-05-17T03:58:10;102384.16;;;9.66;100.00
73651;BME280;61944;52.538;6.108;2023-05-17T04:00:36;102389.13;;;9.61;100.00
73651;BME280;61944;52.538;6.108;2023-05-17T04:03:01;102393.38;;;9.67;100.00
73651;BME280;61944;52.538;6.108;2023-05-17T04:05:27;102392.22;;;9.68;100.00
73651;BME280;61944;52.538;6.108;2023-05-17T04:07:52;102396.00;;;9.72;100.00
73651;BME280;61944;52.538;6.108;2023-05-17T04:10:18;102397.28;;;9.74;100.00
73651;BME280;61944;52.538;6.108;2023-05-17T04:12:43;102406.72;;;9.52;100.00
73651;BME280;61944;52.538;6.108;2023-05-17T04:15:09;102403.59;;;9.54;100.00
73651;BME280;61944;52.538;6.108;2023-05-17T04:17:35;102412.03;;;9.45;100.00
73651;BME280;61944;52.538;6.108;2023-05-17T04:20:00;102425.16;;;9.53;100.00
73651;BME280;61944;52.538;6.108;2023-05-17T04:22:26;102423.06;;;9.33;100.00
73651;BME280;61944;52.538;6.108;2023-05-17T04:24:51;102431.41;;;9.42;100.00
73651;BME280;61944;52.538;6.108;2023-05-17T04:27:17;102425.97;;;9.54;100.00
73651;BME280;61944;52.538;6.108;2023-05-17T04:29:42;102422.41;;;9.36;100.00
73651;BME280;61944;52.538;6.108;2023-05-17T04:32:07;102432.38;;;9.54;100.00
73651;BME280;61944;52.538;6.108;2023-05-17T04:34:33;102438.66;;;9.51;100.00
73651;BME280;61944;52.538;6.108;2023-05-17T04:36:59;102435.00;;;9.60;100.00
73651;BME280;61944;52.538;6.108;2023-05-17T04:39:24;102437.34;;;9.40;100.00
73651;BME280;61944;52.538;6.108;2023-05-17T04:41:50;102449.47;;;9.62;100.00
73651;BME280;61944;52.538;6.108;2023-05-17T04:44:16;102453.72;;;9.59;100.00
73651;BME280;61944;52.538;6.108;2023-05-17T04:46:41;102446.53;;;9.49;100.00
73651;BME280;61944;52.538;6.108;2023-05-17T04:49:08;102444.59;;;9.32;100.00
73651;BME280;61944;52.538;6.108;2023-05-17T04:51:33;102455.75;;;9.50;100.00
73651;BME280;61944;52.538;6.108;2023-05-17T04:53:59;102456.03;;;9.57;100.00
73651;BME280;61944;52.538;6.108;2023-05-17T04:56:25;102444.78;;;9.36;100.00
73651;BME280;61944;52.538;6.108;2023-05-17T04:58:51;102463.13;;;9.54;100.00
73651;BME280;61944;52.538;6.108;2023-05-17T05:01:17;102460.66;;;9.62;100.00
73651;BME280;61944;52.538;6.108;2023-05-17T05:03:42;102465.56;;;9.65;100.00
73651;BME280;61944;52.538;6.108;2023-05-17T05:06:08;102460.59;;;9.79;100.00
73651;BME280;61944;52.538;6.108;2023-05-17T05:08:33;102461.16;;;9.46;100.00
73651;BME280;61944;52.538;6.108;2023-05-17T05:10:58;102469.88;;;9.53;100.00
73651;BME280;61944;52.538;6.108;2023-05-17T05:13:24;102477.44;;;9.44;100.00
73651;BME280;61944;52.538;6.108;2023-05-17T05:15:49;102487.63;;;9.40;100.00
73651;BME280;61944;52.538;6.108;2023-05-17T05:18:14;102493.53;;;9.65;100.00
73651;BME280;61944;52.538;6.108;2023-05-17T05:20:40;102485.97;;;9.65;100.00
73651;BME280;61944;52.538;6.108;2023-05-17T05:23:05;102501.44;;;9.63;100.00
73651;BME280;61944;52.538;6.108;2023-05-17T05:25:31;102497.97;;;9.57;100.00
73651;BME280;61944;52.538;6.108;2023-05-17T05:27:57;102504.59;;;9.44;100.00
73651;BME280;61944;52.538;6.108;2023-05-17T05:30:22;102506.72;;;9.38;100.00
73651;BME280;61944;52.538;6.108;2023-05-17T05:32:48;102520.34;;;9.66;99.84
73651;BME280;61944;52.538;6.108;2023-05-17T05:35:15;102510.38;;;9.30;98.39
73651;BME280;61944;52.538;6.108;2023-05-17T05:37:44;102518.38;;;9.40;97.71
73651;BME280;61944;52.538;6.108;2023-05-17T05:40:10;102520.00;;;9.67;97.42
73651;BME280;61944;52.538;6.108;2023-05-17T05:42:36;102520.38;;;9.40;96.61
73651;BME280;61944;52.538;6.108;2023-05-17T05:45:02;102520.50;;;9.61;94.63
73651;BME280;61944;52.538;6.108;2023-05-17T05:47:27;102536.31;;;9.56;94.07
73651;BME280;61944;52.538;6.108;2023-05-17T05:49:53;102541.88;;;9.56;92.15
73651;BME280;61944;52.538;6.108;2023-05-17T05:52:18;102538.78;;;9.58;91.62
73651;BME280;61944;52.538;6.108;2023-05-17T05:54:44;102545.34;;;9.53;92.00
73651;BME280;61944;52.538;6.108;2023-05-17T05:57:09;102540.09;;;9.52;91.56
73651;BME280;61944;52.538;6.108;2023-05-17T05:59:35;102537.28;;;9.61;91.64
73651;BME280;61944;52.538;6.108;2023-05-17T06:02:00;102557.34;;;9.63;89.75
73651;BME280;61944;52.538;6.108;2023-05-17T06:04:25;102553.56;;;9.67;88.30
73651;BME280;61944;52.538;6.108;2023-05-17T06:06:53;102554.38;;;9.85;90.58
73651;BME280;61944;52.538;6.108;2023-05-17T06:09:18;102567.47;;;10.11;84.58
73651;BME280;61944;52.538;6.108;2023-05-17T06:11:44;102570.09;;;10.07;84.40
73651;BME280;61944;52.538;6.108;2023-05-17T06:14:09;102564.81;;;10.14;82.55
73651;BME280;61944;52.538;6.108;2023-05-17T06:16:35;102567.63;;;10.14;82.59
73651;BME280;61944;52.538;6.108;2023-05-17T06:19:00;102578.47;;;10.07;84.62
73651;BME280;61944;52.538;6.108;2023-05-17T06:21:25;102579.13;;;10.13;83.18
73651;BME280;61944;52.538;6.108;2023-05-17T06:23:51;102575.84;;;10.11;82.67
73651;BME280;61944;52.538;6.108;2023-05-17T06:26:17;102580.13;;;10.17;83.18
73651;BME280;61944;52.538;6.108;2023-05-17T06:28:42;102590.13;;;10.18;82.98
73651;BME280;61944;52.538;6.108;2023-05-17T06:31:07;102583.56;;;10.31;82.42
73651;BME280;61944;52.538;6.108;2023-05-17T06:33:32;102586.03;;;10.15;81.19
73651;BME280;61944;52.538;6.108;2023-05-17T06:35:58;102587.38;;;10.09;78.70
73651;BME280;61944;52.538;6.108;2023-05-17T06:38:24;102587.19;;;10.23;81.50
73651;BME280;61944;52.538;6.108;2023-05-17T06:40:53;102595.38;;;10.28;82.54
73651;BME280;61944;52.538;6.108;2023-05-17T06:43:19;102590.47;;;10.25;81.23
73651;BME280;61944;52.538;6.108;2023-05-17T06:45:45;102597.06;;;10.29;79.24
73651;BME280;61944;52.538;6.108;2023-05-17T06:48:10;102607.75;;;10.27;78.86
73651;BME280;61944;52.538;6.108;2023-05-17T06:50:36;102598.53;;;10.27;75.46
73651;BME280;61944;52.538;6.108;2023-05-17T06:53:02;102603.78;;;10.37;74.48
73651;BME280;61944;52.538;6.108;2023-05-17T06:55:27;102611.38;;;10.36;72.12
73651;BME280;61944;52.538;6.108;2023-05-17T06:57:52;102613.34;;;10.36;75.42
73651;BME280;61944;52.538;6.108;2023-05-17T07:00:18;102613.03;;;10.37;74.81
73651;BME280;61944;52.538;6.108;2023-05-17T07:02:46;102621.06;;;10.39;74.79
73651;BME280;61944;52.538;6.108;2023-05-17T07:05:11;102624.72;;;10.40;72.78
73651;BME280;61944;52.538;6.108;2023-05-17T07:07:37;102624.88;;;10.34;73.79
73651;BME280;61944;52.538;6.108;2023-05-17T07:10:04;102629.47;;;10.39;75.49
73651;BME280;61944;52.538;6.108;2023-05-17T07:12:30;102626.94;;;10.55;77.15
73651;BME280;61944;52.538;6.108;2023-05-17T07:14:56;102620.97;;;10.65;76.05
73651;BME280;61944;52.538;6.108;2023-05-17T07:17:21;102626.59;;;10.65;75.28
73651;BME280;61944;52.538;6.108;2023-05-17T07:19:46;102630.81;;;10.80;74.40
73651;BME280;61944;52.538;6.108;2023-05-17T07:22:15;102639.84;;;10.86;71.25
73651;BME280;61944;52.538;6.108;2023-05-17T07:24:42;102634.94;;;10.74;70.60
73651;BME280;61944;52.538;6.108;2023-05-17T07:27:07;102645.00;;;10.66;73.24
73651;BME280;61944;52.538;6.108;2023-05-17T07:29:33;102643.63;;;10.81;72.54
73651;BME280;61944;52.538;6.108;2023-05-17T07:31:58;102648.97;;;13.00;69.25
73651;BME280;61944;52.538;6.108;2023-05-17T07:34:23;102639.88;;;11.36;73.95
73651;BME280;61944;52.538;6.108;2023-05-17T07:36:49;102650.38;;;11.18;78.09
73651;BME280;61944;52.538;6.108;2023-05-17T07:39:14;102647.41;;;11.15;74.14
73651;BME280;61944;52.538;6.108;2023-05-17T07:41:40;102650.91;;;11.12;74.19
73651;BME280;61944;52.538;6.108;2023-05-17T07:44:05;102651.81;;;10.95;74.33
73651;BME280;61944;52.538;6.108;2023-05-17T07:46:31;102656.34;;;11.08;75.56
73651;BME280;61944;52.538;6.108;2023-05-17T07:48:56;102653.94;;;10.98;74.22
73651;BME280;61944;52.538;6.108;2023-05-17T07:51:21;102657.72;;;11.02;76.06
73651;BME280;61944;52.538;6.108;2023-05-17T07:53:47;102654.78;;;10.90;74.14
73651;BME280;61944;52.538;6.108;2023-05-17T07:56:12;102662.34;;;10.98;76.69
73651;BME280;61944;52.538;6.108;2023-05-17T07:58:37;102659.47;;;10.86;75.63
73651;BME280;61944;52.538;6.108;2023-05-17T08:01:03;102660.03;;;11.00;76.46
73651;BME280;61944;52.538;6.108;2023-05-17T08:03:28;102669.81;;;11.24;77.43
73651;BME280;61944;52.538;6.108;2023-05-17T08:05:54;102664.38;;;11.18;76.05
73651;BME280;61944;52.538;6.108;2023-05-17T08:08:20;102669.88;;;11.06;75.02
73651;BME280;61944;52.538;6.108;2023-05-17T08:10:45;102669.06;;;11.06;80.89
73651;BME280;61944;52.538;6.108;2023-05-17T08:13:11;102667.47;;;11.26;76.75
73651;BME280;61944;52.538;6.108;2023-05-17T08:15:36;102670.91;;;11.31;77.93
73651;BME280;61944;52.538;6.108;2023-05-17T08:18:02;102684.50;;;11.21;76.08
73651;BME280;61944;52.538;6.108;2023-05-17T08:20:27;102678.16;;;11.32;73.65
73651;BME280;61944;52.538;6.108;2023-05-17T08:22:52;102680.53;;;11.51;71.47
73651;BME280;61944;52.538;6.108;2023-05-17T08:25:18;102680.03;;;11.49;71.41
73651;BME280;61944;52.538;6.108;2023-05-17T08:27:44;102681.31;;;11.31;72.53
73651;BME280;61944;52.538;6.108;2023-05-17T08:30:09;102673.66;;;11.40;73.00
73651;BME280;61944;52.538;6.108;2023-05-17T08:32:35;102686.88;;;11.60;73.10
73651;BME280;61944;52.538;6.108;2023-05-17T08:35:01;102677.31;;;11.62;72.82
73651;BME280;61944;52.538;6.108;2023-05-17T08:37:26;102683.25;;;11.81;70.33
73651;BME280;61944;52.538;6.108;2023-05-17T08:39:52;102673.28;;;11.92;71.38
73651;BME280;61944;52.538;6.108;2023-05-17T08:42:20;102680.59;;;12.06;71.74
73651;BME280;61944;52.538;6.108;2023-05-17T08:44:46;102677.88;;;12.30;69.70
73651;BME280;61944;52.538;6.108;2023-05-17T08:47:13;102685.06;;;12.40;69.18
73651;BME280;61944;52.538;6.108;2023-05-17T08:49:50;102678.25;;;11.87;69.22
73651;BME280;61944;52.538;6.108;2023-05-17T08:52:15;102691.28;;;11.70;71.40
73651;BME280;61944;52.538;6.108;2023-05-17T08:54:41;102683.53;;;11.67;71.54
73651;BME280;61944;52.538;6.108;2023-05-17T08:57:07;102688.72;;;11.77;71.39
73651;BME280;61944;52.538;6.108;2023-05-17T08:59:35;102688.47;;;11.70;70.97
73651;BME280;61944;52.538;6.108;2023-05-17T09:02:01;102688.59;;;12.16;72.79
73651;BME280;61944;52.538;6.108;2023-05-17T09:04:28;102693.72;;;12.14;74.38
73651;BME280;61944;52.538;6.108;2023-05-17T09:06:54;102705.13;;;11.96;72.23
73651;BME280;61944;52.538;6.108;2023-05-17T09:09:20;102699.94;;;11.77;71.49
73651;BME280;61944;52.538;6.108;2023-05-17T09:11:45;102704.06;;;11.80;72.38
73651;BME280;61944;52.538;6.108;2023-05-17T09:14:14;102708.06;;;12.00;69.05
73651;BME280;61944;52.538;6.108;2023-05-17T09:16:41;102713.13;;;12.07;71.21
73651;BME280;61944;52.538;6.108;2023-05-17T09:19:13;102710.31;;;12.07;69.34
73651;BME280;61944;52.538;6.108;2023-05-17T09:21:39;102699.97;;;11.98;74.18
73651;BME280;61944;52.538;6.108;2023-05-17T09:24:05;102712.69;;;11.75;69.04
73651;BME280;61944;52.538;6.108;2023-05-17T09:26:44;102719.38;;;11.83;69.32
73651;BME280;61944;52.538;6.108;2023-05-17T09:29:11;102709.03;;;12.04;68.84
73651;BME280;61944;52.538;6.108;2023-05-17T09:31:38;102710.72;;;12.17;65.70
73651;BME280;61944;52.538;6.108;2023-05-17T09:34:04;102715.19;;;12.31;66.14
73651;BME280;61944;52.538;6.108;2023-05-17T09:36:31;102716.34;;;12.51;67.46
73651;BME280;61944;52.538;6.108;2023-05-17T09:38:58;102722.91;;;12.55;63.87
73651;BME280;61944;52.538;6.108;2023-05-17T09:41:30;102718.63;;;12.70;59.98
73651;BME280;61944;52.538;6.108;2023-05-17T09:44:06;102711.69;;;12.79;62.47
73651;BME280;61944;52.538;6.108;2023-05-17T09:46:33;102718.25;;;12.59;58.52
73651;BME280;61944;52.538;6.108;2023-05-17T09:49:00;102710.41;;;12.77;57.63
73651;BME280;61944;52.538;6.108;2023-05-17T09:51:39;102716.97;;;12.81;60.49
73651;BME280;61944;52.538;6.108;2023-05-17T09:54:05;102715.72;;;13.77;62.45
73651;BME280;61944;52.538;6.108;2023-05-17T09:56:31;102717.03;;;13.18;57.90
73651;BME280;61944;52.538;6.108;2023-05-17T09:58:59;102718.34;;;13.45;57.71
73651;BME280;61944;52.538;6.108;2023-05-17T10:01:30;102713.16;;;13.59;57.65
73651;BME280;61944;52.538;6.108;2023-05-17T10:03:59;102711.38;;;12.81;61.51
73651;BME280;61944;52.538;6.108;2023-05-17T10:06:27;102709.38;;;12.94;59.27
73651;BME280;61944;52.538;6.108;2023-05-17T10:08:55;102721.31;;;12.78;58.95
73651;BME280;61944;52.538;6.108;2023-05-17T10:11:23;102719.25;;;13.12;57.58
73651;BME280;61944;52.538;6.108;2023-05-17T10:14:18;102719.47;;;13.19;57.29
73651;BME280;61944;52.538;6.108;2023-05-17T10:16:47;102716.31;;;13.21;57.25
73651;BME280;61944;52.538;6.108;2023-05-17T10:19:13;102727.94;;;13.07;60.06
73651;BME280;61944;52.538;6.108;2023-05-17T10:21:39;102723.34;;;12.90;59.65
73651;BME280;61944;52.538;6.108;2023-05-17T10:24:05;102729.53;;;12.96;60.60
73651;BME280;61944;52.538;6.108;2023-05-17T10:26:32;102724.38;;;12.86;56.28
73651;BME280;61944;52.538;6.108;2023-05-17T10:28:59;102730.50;;;13.12;58.58
73651;BME280;61944;52.538;6.108;2023-05-17T10:31:28;102732.28;;;13.54;54.04
73651;BME280;61944;52.538;6.108;2023-05-17T10:33:54;102717.38;;;13.53;53.00
73651;BME280;61944;52.538;6.108;2023-05-17T10:36:22;102719.09;;;13.82;53.36
73651;BME280;61944;52.538;6.108;2023-05-17T10:38:48;102723.41;;;13.92;57.16
73651;BME280;61944;52.538;6.108;2023-05-17T10:41:15;102732.16;;;13.62;55.83
73651;BME280;61944;52.538;6.108;2023-05-17T10:43:42;102721.38;;;13.52;56.87
73651;BME280;61944;52.538;6.108;2023-05-17T10:46:16;102730.72;;;13.81;58.13
73651;BME280;61944;52.538;6.108;2023-05-17T10:48:43;102724.19;;;13.40;55.37
73651;BME280;61944;52.538;6.108;2023-05-17T10:51:09;102730.00;;;13.84;55.82
73651;BME280;61944;52.538;6.108;2023-05-17T10:54:10;102725.59;;;13.58;56.06
73651;BME280;61944;52.538;6.108;2023-05-17T10:59:22;102719.41;;;14.50;54.36
73651;BME280;61944;52.538;6.108;2023-05-17T11:01:59;102718.81;;;14.28;53.80
73651;BME280;61944;52.538;6.108;2023-05-17T11:04:30;102722.19;;;14.06;55.13
73651;BME280;61944;52.538;6.108;2023-05-17T11:10:02;102715.47;;;14.67;54.29
73651;BME280;61944;52.538;6.108;2023-05-17T11:12:32;102714.69;;;14.54;53.98
73651;BME280;61944;52.538;6.108;2023-05-17T11:14:59;102706.41;;;14.45;52.06
73651;BME280;61944;52.538;6.108;2023-05-17T11:17:26;102715.41;;;14.79;53.86
73651;BME280;61944;52.538;6.108;2023-05-17T11:22:24;102714.84;;;14.57;53.72
73651;BME280;61944;52.538;6.108;2023-05-17T11:24:52;102703.91;;;14.56;54.06
73651;BME280;61944;52.538;6.108;2023-05-17T11:27:20;102700.50;;;14.94;54.43
73651;BME280;61944;52.538;6.108;2023-05-17T11:29:54;102708.16;;;15.10;52.98
73651;BME280;61944;52.538;6.108;2023-05-17T11:32:26;102713.41;;;15.27;52.13
73651;BME280;61944;52.538;6.108;2023-05-17T11:34:53;102711.25;;;14.89;50.77
73651;BME280;61944;52.538;6.108;2023-05-17T11:37:28;102709.94;;;14.86;53.56
73651;BME280;61944;52.538;6.108;2023-05-17T11:40:07;102700.88;;;14.49;56.08
73651;BME280;61944;52.538;6.108;2023-05-17T11:42:33;102701.03;;;14.68;54.90
73651;BME280;61944;52.538;6.108;2023-05-17T11:45:00;102711.78;;;14.78;55.80
73651;BME280;61944;52.538;6.108;2023-05-17T11:47:27;102718.97;;;14.48;58.15
73651;BME280;61944;52.538;6.108;2023-05-17T11:49:59;102719.41;;;14.50;62.30
73651;BME280;61944;52.538;6.108;2023-05-17T11:52:27;102711.28;;;14.32;59.78
73651;BME280;61944;52.538;6.108;2023-05-17T11:54:53;102719.84;;;14.36;63.99
73651;BME280;61944;52.538;6.108;2023-05-17T11:57:18;102715.78;;;14.49;58.51
73651;BME280;61944;52.538;6.108;2023-05-17T11:59:45;102706.69;;;15.00;57.32
73651;BME280;61944;52.538;6.108;2023-05-17T12:02:33;102701.34;;;14.51;59.46
73651;BME280;61944;52.538;6.108;2023-05-17T12:04:59;102703.75;;;14.36;60.39
73651;BME280;61944;52.538;6.108;2023-05-17T12:07:24;102711.22;;;14.16;61.10
73651;BME280;61944;52.538;6.108;2023-05-17T12:09:50;102695.41;;;14.12;60.01
73651;BME280;61944;52.538;6.108;2023-05-17T12:12:17;102701.56;;;14.30;60.74
73651;BME280;61944;52.538;6.108;2023-05-17T12:14:46;102692.97;;;14.38;58.96
73651;BME280;61944;52.538;6.108;2023-05-17T12:17:20;102696.59;;;14.99;55.75
73651;BME280;61944;52.538;6.108;2023-05-17T12:19:50;102701.06;;;15.16;55.22
73651;BME280;61944;52.538;6.108;2023-05-17T12:22:16;102697.47;;;14.71;52.61
73651;BME280;61944;52.538;6.108;2023-05-17T12:24:42;102693.03;;;15.18;52.78
73651;BME280;61944;52.538;6.108;2023-05-17T12:27:08;102695.69;;;14.95;57.04
73651;BME280;61944;52.538;6.108;2023-05-17T12:29:33;102704.31;;;14.86;55.83
73651;BME280;61944;52.538;6.108;2023-05-17T12:32:00;102700.69;;;15.01;55.39
73651;BME280;61944;52.538;6.108;2023-05-17T12:34:27;102698.75;;;15.21;55.36
73651;BME280;61944;52.538;6.108;2023-05-17T12:36:53;102703.84;;;15.67;52.77
73651;BME280;61944;52.538;6.108;2023-05-17T12:39:19;102703.16;;;15.54;54.03
73651;BME280;61944;52.538;6.108;2023-05-17T12:41:48;102699.09;;;16.07;51.42
73651;BME280;61944;52.538;6.108;2023-05-17T12:44:16;102685.84;;;16.30;51.07
73651;BME280;61944;52.538;6.108;2023-05-17T12:46:42;102685.03;;;16.53;50.29
73651;BME280;61944;52.538;6.108;2023-05-17T12:49:08;102698.66;;;16.04;50.95
73651;BME280;61944;52.538;6.108;2023-05-17T12:51:41;102693.06;;;15.89;48.96
73651;BME280;61944;52.538;6.108;2023-05-17T12:54:34;102686.03;;;16.41;46.47
73651;BME280;61944;52.538;6.108;2023-05-17T12:57:08;102686.56;;;16.70;47.00
73651;BME280;61944;52.538;6.108;2023-05-17T12:59:45;102696.53;;;16.40;48.92
73651;BME280;61944;52.538;6.108;2023-05-17T13:02:10;102697.28;;;16.18;49.62
73651;BME280;61944;52.538;6.108;2023-05-17T13:04:36;102692.59;;;16.06;48.10
73651;BME280;61944;52.538;6.108;2023-05-17T13:07:04;102684.53;;;16.04;46.17